Aeroporto :
LOGIN :

Iscrizione | Disclaimer

   EN    FR    IT 

 










Sommario :    VFR   VFR Marginale   IFR   IFR Intensivo   IFR Molto Intensivo
Visibilità : 
Base nubi : 
>= 8 km
>= 3000ft
5 / 8 km
1000 / 3000 ft
1500m / 5 km
500 / 1000 ft
800 / 1500m
200 / 500 ft
< 800m
< 200 ft
Simboli :   Temporali  Nebbia  Neve Forte  Precipitazioni Forti  Vento > 20 kt
SIGMETs :   Varie  Temporali  Ghiacco  Turbolenza  Onda orograficha  Ceneri Vulcaniche






- Altitudine del aeroporto : 405 ft
- Codice IATA : ODH


EGVO - RAF Odiham

ULTIMO METAR :
  • 182050Z 24018KT 9999 SCT020 SCT070 BKN090 06/03 Q1015 TEMPO FEW020 RMK WHT TEMPO BLU

METARs OBSOLETI :
  • 181950Z 25025G42KT 9999 -SHRA SCT020CB SCT050 BKN090 06/03 Q1015 TEMPO 7000 SHRA RMK WHT TEMPO WHT
  • 181920Z 23017KT 9999 FEW030 SCT050 BKN100 06/04 Q1015 TEMPO 7000 SHRA BKN015CB RMK BLU TEMPO WHT
  • 181850Z 22016KT 9999 FEW030 SCT050 BKN140 06/03 Q1015 TEMPO 7000 SHRA BKN015CB RMK BLU TEMPO WHT
  • 181832Z 23018KT 9999 -SHRA FEW015CB SCT050 06/04 Q1015 NOSIG RMK BLU BLU
  • 181821Z 25021KT 9999 SHRA FEW012 BKN015CB 06/04 Q1015 TEMPO FEW015 RMK WHT TEMPO BLU
  • 181807Z 25021G33KT 4000 SHRA FEW012 BKN015CB 06/04 Q1016 TEMPO +SHRA SCT012 RMK GRN TEMPO GRN
  • 181750Z 22019KT 9999 -SHRA SCT022TCU SCT070 08/05 Q1015 TEMPO 23026G36KT 4000 +SHRA BKN018CB RMK WHT TEMPO GRN

TAF TAF EGVO
Valido dal 18 a 21 ore il 19 a 09 ore UTC


181930Z 1821/1909 26016G26KT 9999 FEW025
BECMG 1821/1823 28014KT



MetMap, La meteo Aeronautica in un colpo d'occhio ! - Copyright ORBIFLY Dicembre 2007 - Disclaimer

ORBIFLY MET'MAP TEAM :

Programmazione e sviluppo : Alexandra Zaïnal
Concezione : Baudouin d'Aumeries
Aiuto per la programmazione : Marc-Olivier Méhu
Supporto tecnico e logistico : Manuel Goepfert
Aiuto per la traduzione : Arnaldo La Scala

Contatto : metmap@orbifly.com




FONTI E CREDITI :

   NOAA